Time;durP1;ratioP1;P1;durP2;ratioP2;P2;SDS_P1;SDS_P2;PMS_P1;PMS_P2;Temp;Humidity;BMP_temperature;BMP_pressure;BME280_temperature;BME280_humidity;BME280_pressure;Samples;Min_cycle;Max_cycle;Signal;HPM_P1;HPM_P2
2023/06/06 00:00:30;;;;;;;7.78;4.25;;;18.80;66.40;;;;;;5113224;28;20070;-76
2023/06/06 00:02:56;;;;;;;7.95;3.80;;;18.80;66.60;;;;;;5113142;28;20063;-76
2023/06/06 00:05:25;;;;;;;9.57;4.78;;;18.80;66.70;;;;;;5113297;28;20024;-77
2023/06/06 00:07:52;;;;;;;8.00;4.57;;;18.80;66.70;;;;;;5112169;28;20051;-76
2023/06/06 00:10:18;;;;;;;6.85;4.03;;;18.80;66.90;;;;;;5112184;28;20024;-76
2023/06/06 00:12:45;;;;;;;8.40;4.10;;;18.80;67.00;;;;;;5113043;28;20030;-76
2023/06/06 00:15:12;;;;;;;7.90;4.07;;;18.70;67.00;;;;;;5112162;28;20031;-75
2023/06/06 00:17:39;;;;;;;7.20;3.83;;;18.70;67.00;;;;;;5111945;28;20021;-75
2023/06/06 00:20:08;;;;;;;9.00;4.57;;;18.60;67.00;;;;;;5113022;28;20024;-76
2023/06/06 00:22:35;;;;;;;9.50;4.75;;;18.60;67.20;;;;;;5112918;28;20032;-76
2023/06/06 00:25:01;;;;;;;10.45;4.38;;;18.50;67.40;;;;;;5112804;28;20044;-76
2023/06/06 00:27:26;;;;;;;9.50;4.53;;;18.50;67.20;;;;;;5112874;28;20039;-76
2023/06/06 00:29:52;;;;;;;8.55;4.95;;;18.50;67.30;;;;;;5112862;28;20039;-76
2023/06/06 00:32:17;;;;;;;8.80;4.65;;;18.40;67.40;;;;;;5115897;28;20103;-76
2023/06/06 00:34:43;;;;;;;10.40;4.78;;;18.40;67.40;;;;;;5115670;28;20076;-75
2023/06/06 00:37:09;;;;;;;10.60;4.82;;;18.40;67.40;;;;;;5115517;28;20450;-76
2023/06/06 00:39:34;;;;;;;10.18;4.78;;;18.40;67.40;;;;;;5115515;28;20025;-76
2023/06/06 00:42:00;;;;;;;10.93;4.97;;;18.30;67.60;;;;;;5115449;28;20036;-75
2023/06/06 00:44:25;;;;;;;9.20;4.50;;;18.30;67.60;;;;;;5116414;28;20032;-76
2023/06/06 00:46:51;;;;;;;11.35;4.72;;;18.30;67.90;;;;;;5116449;28;20024;-76
2023/06/06 00:49:18;;;;;;;8.32;4.60;;;18.20;67.90;;;;;;5115374;28;20043;-76
2023/06/06 00:51:45;;;;;;;9.82;4.45;;;18.20;68.00;;;;;;5115334;28;20054;-76
2023/06/06 00:54:13;;;;;;;9.85;4.25;;;18.20;68.20;;;;;;5115355;28;20108;-76
2023/06/06 00:56:43;;;;;;;10.38;4.78;;;18.10;68.20;;;;;;5115154;28;20031;-76
2023/06/06 00:59:10;;;;;;;10.45;5.18;;;18.10;68.40;;;;;;5116179;28;20084;-75
2023/06/06 01:01:38;;;;;;;10.15;4.93;;;18.00;68.40;;;;;;5116003;28;20020;-75
2023/06/06 01:04:07;;;;;;;12.85;5.32;;;18.00;68.30;;;;;;5115006;28;20020;-75
2023/06/06 01:06:33;;;;;;;8.48;4.72;;;18.00;68.40;;;;;;5115865;28;20049;-76
2023/06/06 01:09:07;;;;;;;9.45;4.55;;;18.00;68.40;;;;;;5114899;28;20024;-76
2023/06/06 01:12:07;;;;;;;8.73;4.57;;;18.00;68.50;;;;;;5114688;28;20024;-76
2023/06/06 01:14:43;;;;;;;8.50;4.40;;;17.90;68.60;;;;;;5115906;28;20076;-75
2023/06/06 01:17:10;;;;;;;8.10;4.32;;;17.80;68.90;;;;;;5115749;28;20060;-76
2023/06/06 01:19:41;;;;;;;10.35;4.60;;;17.70;69.80;;;;;;5114795;28;20027;-75
2023/06/06 01:22:06;;;;;;;10.63;4.80;;;17.70;69.10;;;;;;5115684;28;20073;-76
2023/06/06 01:24:35;;;;;;;8.52;4.00;;;17.60;69.20;;;;;;5114410;28;20040;-75
2023/06/06 01:27:03;;;;;;;7.82;4.43;;;17.60;69.20;;;;;;5115518;28;20016;-75
2023/06/06 01:29:30;;;;;;;9.10;4.32;;;17.60;69.30;;;;;;5114692;28;20024;-76
2023/06/06 01:32:10;;;;;;;9.38;4.22;;;17.60;69.30;;;;;;5115431;28;20020;-76
2023/06/06 01:34:44;;;;;;;8.60;4.55;;;17.50;69.30;;;;;;5115419;28;20050;-75
2023/06/06 01:37:48;;;;;;;8.32;4.00;;;17.50;69.40;;;;;;5115383;28;20024;-76
2023/06/06 01:40:18;;;;;;;9.90;4.57;;;17.50;69.40;;;;;;5115348;28;20486;-76
2023/06/06 01:42:46;;;;;;;10.32;4.88;;;17.40;69.60;;;;;;5114060;28;20020;-76
2023/06/06 01:45:14;;;;;;;10.00;4.60;;;17.40;69.80;;;;;;5115206;28;20024;-76
2023/06/06 01:47:41;;;;;;;10.10;4.43;;;17.40;69.90;;;;;;5114113;28;20046;-76
2023/06/06 01:50:08;;;;;;;9.27;4.15;;;17.40;70.00;;;;;;5115046;28;20035;-76
2023/06/06 01:52:35;;;;;;;9.77;4.68;;;17.30;69.80;;;;;;5114977;28;20027;-76
2023/06/06 01:55:01;;;;;;;7.85;4.40;;;17.30;69.80;;;;;;5115028;28;20074;-75
2023/06/06 01:57:27;;;;;;;9.38;4.40;;;17.20;69.90;;;;;;5114930;28;20024;-76
2023/06/06 01:59:53;;;;;;;7.65;4.13;;;17.20;70.10;;;;;;5113916;28;20032;-76
2023/06/06 02:02:19;;;;;;;9.35;4.35;;;17.20;70.20;;;;;;5113907;28;20032;-76
2023/06/06 02:04:45;;;;;;;12.82;4.53;;;17.10;70.20;;;;;;5113934;28;20495;-76
2023/06/06 02:07:12;;;;;;;9.43;4.32;;;17.10;70.20;;;;;;5096872;28;20052;-76
2023/06/06 02:09:38;;;;;;;7.82;4.50;;;17.10;70.10;;;;;;5114675;28;20016;-76
2023/06/06 02:12:04;;;;;;;9.35;4.68;;;17.00;70.20;;;;;;5113571;28;20024;-76
2023/06/06 02:14:29;;;;;;;13.15;4.50;;;17.00;70.50;;;;;;5113676;28;20028;-75
2023/06/06 02:16:55;;;;;;;7.85;4.10;;;16.90;70.60;;;;;;5114551;28;20058;-76
2023/06/06 02:19:20;;;;;;;10.15;4.57;;;16.90;70.80;;;;;;5113713;28;20028;-75
2023/06/06 02:21:48;;;;;;;8.98;4.05;;;16.90;70.80;;;;;;5114467;28;20032;-76
2023/06/06 02:24:14;;;;;;;9.68;4.38;;;16.90;70.80;;;;;;5113432;28;20044;-75
2023/06/06 02:26:42;;;;;;;9.30;4.47;;;16.90;70.90;;;;;;5113498;28;20059;-76
2023/06/06 02:29:08;;;;;;;8.55;4.50;;;16.80;70.60;;;;;;5096795;28;20035;-76
2023/06/06 02:31:36;;;;;;;9.25;4.50;;;16.80;70.70;;;;;;5114255;28;20411;-76
2023/06/06 02:34:02;;;;;;;8.07;4.10;;;16.80;70.80;;;;;;5113336;28;20028;-75
2023/06/06 02:36:30;;;;;;;8.73;4.43;;;16.80;70.90;;;;;;5114184;28;20020;-76
2023/06/06 02:38:57;;;;;;;8.73;4.15;;;16.80;70.80;;;;;;5113418;28;20027;-76
2023/06/06 02:41:23;;;;;;;10.38;4.65;;;16.70;71.00;;;;;;5113127;28;20035;-76
2023/06/06 02:43:49;;;;;;;7.72;4.05;;;16.70;71.00;;;;;;5114179;28;20020;-76
2023/06/06 02:46:15;;;;;;;10.85;4.95;;;16.70;71.00;;;;;;5113297;28;20020;-76
2023/06/06 02:48:45;;;;;;;7.95;4.20;;;16.60;71.10;;;;;;5114040;28;20020;-76
2023/06/06 02:51:11;;;;;;;9.57;4.30;;;16.60;71.10;;;;;;5112934;28;20036;-75
2023/06/06 02:53:40;;;;;;;8.35;3.88;;;16.60;71.40;;;;;;5113425;28;20073;-75
2023/06/06 02:56:06;;;;;;;9.30;4.53;;;16.50;71.40;;;;;;5112962;28;20379;-76
2023/06/06 02:58:32;;;;;;;7.95;3.92;;;16.50;71.60;;;;;;5112877;28;20028;-75
2023/06/06 03:01:00;;;;;;;9.60;4.57;;;16.50;71.60;;;;;;5113816;28;20028;-75
2023/06/06 03:03:26;;;;;;;8.27;4.47;;;16.50;71.40;;;;;;5112813;28;20046;-75
2023/06/06 03:05:54;;;;;;;8.43;4.78;;;16.50;71.50;;;;;;5113720;28;20047;-75
2023/06/06 03:08:21;;;;;;;9.35;4.47;;;16.50;71.40;;;;;;5113824;28;20052;-75
2023/06/06 03:10:51;;;;;;;9.18;4.72;;;16.40;71.70;;;;;;5113796;28;20554;-75
2023/06/06 03:13:17;;;;;;;8.90;4.38;;;16.40;71.80;;;;;;5112779;28;20020;-75
2023/06/06 03:15:46;;;;;;;6.90;4.10;;;16.40;71.80;;;;;;5112791;28;20044;-75
2023/06/06 03:18:16;;;;;;;7.15;3.97;;;16.30;71.90;;;;;;5113607;28;20024;-76
2023/06/06 03:20:45;;;;;;;8.55;4.40;;;16.30;72.00;;;;;;5113614;28;20024;-76
2023/06/06 03:23:11;;;;;;;8.93;4.30;;;16.30;71.90;;;;;;5113423;28;20122;-75
2023/06/06 03:25:45;;;;;;;7.53;4.40;;;16.30;71.90;;;;;;5113546;28;20065;-75
2023/06/06 03:28:12;;;;;;;9.00;4.70;;;16.30;72.00;;;;;;5112591;28;20085;-75
2023/06/06 03:30:38;;;;;;;9.82;4.38;;;16.20;72.00;;;;;;5113409;28;20028;-76
2023/06/06 03:33:06;;;;;;;10.95;4.50;;;16.20;72.10;;;;;;5112622;28;20040;-76
2023/06/06 03:35:33;;;;;;;8.50;4.32;;;16.20;72.20;;;;;;5113366;28;20012;-75
2023/06/06 03:37:59;;;;;;;8.85;4.25;;;16.20;72.30;;;;;;5113394;28;20043;-75
2023/06/06 03:40:25;;;;;;;8.73;4.30;;;16.10;72.40;;;;;;5113405;28;20052;-76
2023/06/06 03:42:51;;;;;;;9.63;4.47;;;16.10;72.50;;;;;;5113343;28;20031;-76
2023/06/06 03:45:17;;;;;;;12.20;4.60;;;16.10;72.40;;;;;;5113360;28;20031;-76
2023/06/06 03:47:44;;;;;;;9.70;4.55;;;16.10;72.50;;;;;;5112423;28;20035;-75
2023/06/06 03:50:10;;;;;;;9.55;4.72;;;16.00;72.40;;;;;;5113287;28;20028;-75
2023/06/06 03:52:36;;;;;;;9.23;4.93;;;16.10;72.60;;;;;;5113237;28;20385;-76
2023/06/06 03:55:02;;;;;;;10.05;4.43;;;16.00;72.70;;;;;;5113302;28;20080;-75
2023/06/06 03:57:28;;;;;;;9.38;4.43;;;15.90;72.80;;;;;;5112179;28;20080;-76
2023/06/06 03:59:54;;;;;;;9.02;4.05;;;15.90;73.10;;;;;;5113240;28;20027;-75
2023/06/06 04:02:20;;;;;;;9.02;4.38;;;15.90;73.10;;;;;;5113151;28;20032;-75
2023/06/06 04:04:51;;;;;;;8.35;4.40;;;15.90;73.30;;;;;;5113196;28;20032;-75
2023/06/06 04:07:17;;;;;;;8.73;4.50;;;15.90;73.40;;;;;;5116345;28;20020;-76
2023/06/06 04:09:43;;;;;;;9.43;3.88;;;15.90;73.20;;;;;;5115988;28;20031;-76
2023/06/06 04:12:10;;;;;;;10.95;4.72;;;15.90;73.20;;;;;;5116022;28;20027;-76
2023/06/06 04:14:35;;;;;;;12.20;4.85;;;16.00;73.30;;;;;;5115964;28;20024;-76
2023/06/06 04:17:01;;;;;;;9.73;4.68;;;15.90;73.30;;;;;;5116920;28;20083;-75
2023/06/06 04:19:28;;;;;;;8.30;4.35;;;15.90;73.30;;;;;;5116551;28;20039;-75
2023/06/06 04:21:57;;;;;;;8.85;4.70;;;15.90;73.50;;;;;;5098929;28;20020;-76
2023/06/06 04:24:23;;;;;;;9.50;4.40;;;15.90;73.60;;;;;;5116675;28;20042;-76
2023/06/06 04:26:49;;;;;;;8.05;4.45;;;15.90;73.60;;;;;;5115774;28;20472;-75
2023/06/06 04:29:14;;;;;;;10.15;4.68;;;15.90;73.50;;;;;;5115868;28;20021;-76
2023/06/06 04:31:40;;;;;;;9.07;4.20;;;15.90;73.70;;;;;;5116528;28;20036;-75
2023/06/06 04:34:09;;;;;;;9.55;4.63;;;15.80;73.90;;;;;;5115766;28;20024;-76
2023/06/06 04:36:38;;;;;;;10.02;4.93;;;15.80;73.80;;;;;;5116536;28;20020;-76
2023/06/06 04:39:04;;;;;;;8.68;5.20;;;15.80;74.00;;;;;;5115506;28;20039;-76
2023/06/06 04:41:30;;;;;;;10.50;4.68;;;15.80;74.00;;;;;;5116389;28;20095;-75
2023/06/06 04:43:58;;;;;;;8.70;4.57;;;15.90;74.00;;;;;;5116442;28;20035;-76
2023/06/06 04:46:24;;;;;;;8.93;4.93;;;15.80;74.20;;;;;;5115323;28;20030;-76
2023/06/06 04:48:54;;;;;;;10.85;4.57;;;15.90;74.20;;;;;;5115418;28;20059;-76
2023/06/06 04:51:22;;;;;;;9.63;4.90;;;15.80;74.40;;;;;;5116221;28;20042;-77
2023/06/06 04:53:50;;;;;;;8.88;4.60;;;15.80;74.50;;;;;;5115226;28;20020;-76
2023/06/06 04:56:17;;;;;;;10.57;4.78;;;15.80;74.50;;;;;;5115197;28;20078;-76
2023/06/06 04:58:44;;;;;;;10.15;5.60;;;15.80;74.40;;;;;;5115325;28;20027;-76
2023/06/06 05:01:12;;;;;;;9.82;4.90;;;15.80;74.40;;;;;;5116096;28;20081;-76
2023/06/06 05:03:38;;;;;;;10.15;4.63;;;15.80;74.40;;;;;;5115055;28;20368;-76
2023/06/06 05:06:05;;;;;;;9.63;4.70;;;15.90;74.60;;;;;;5115910;28;20024;-76
2023/06/06 05:08:31;;;;;;;10.95;5.13;;;15.80;74.50;;;;;;5114996;28;20020;-77
2023/06/06 05:10:58;;;;;;;9.25;5.60;;;15.80;74.10;;;;;;5114840;28;20047;-77
2023/06/06 05:13:23;;;;;;;10.07;5.07;;;15.80;74.80;;;;;;5114904;28;20047;-76
2023/06/06 05:15:49;;;;;;;7.88;4.53;;;15.90;74.80;;;;;;5114709;28;20028;-76
2023/06/06 05:18:15;;;;;;;10.43;5.22;;;15.80;74.80;;;;;;5114318;28;20041;-76
2023/06/06 05:20:42;;;;;;;9.65;5.25;;;15.90;74.90;;;;;;5114714;28;20040;-76
2023/06/06 05:23:09;;;;;;;10.35;5.10;;;15.90;75.00;;;;;;5115724;28;20104;-75
2023/06/06 05:25:36;;;;;;;11.18;4.97;;;15.90;75.20;;;;;;5114628;28;20040;-75
2023/06/06 05:28:01;;;;;;;14.18;6.07;;;15.90;75.10;;;;;;5115474;28;20046;-76
2023/06/06 05:30:27;;;;;;;11.73;5.00;;;15.90;75.10;;;;;;5114465;28;20032;-76
2023/06/06 05:32:52;;;;;;;10.07;4.95;;;15.90;75.20;;;;;;5097580;28;20020;-76
2023/06/06 05:35:18;;;;;;;10.30;5.20;;;16.00;75.10;;;;;;5097506;28;20028;-75
2023/06/06 05:37:44;;;;;;;9.43;5.15;;;16.00;75.10;;;;;;5115301;28;20028;-75
2023/06/06 05:40:11;;;;;;;10.48;5.30;;;16.00;75.00;;;;;;5114388;28;20028;-75
2023/06/06 05:42:37;;;;;;;10.63;4.97;;;16.00;75.50;;;;;;5114505;28;20048;-76
2023/06/06 05:45:03;;;;;;;9.18;4.82;;;16.00;75.50;;;;;;5115225;28;20024;-76
2023/06/06 05:47:29;;;;;;;11.40;4.78;;;16.10;75.60;;;;;;5114109;28;20096;-76
2023/06/06 05:49:54;;;;;;;11.80;5.22;;;16.10;75.40;;;;;;5115209;28;20394;-76
2023/06/06 05:52:20;;;;;;;13.00;5.25;;;16.10;75.50;;;;;;5097120;28;20052;-76
2023/06/06 05:54:46;;;;;;;11.32;5.30;;;16.10;75.70;;;;;;5115113;28;20073;-76
2023/06/06 05:57:20;;;;;;;9.85;4.57;;;16.10;75.60;;;;;;5097185;28;20078;-76
2023/06/06 05:59:46;;;;;;;9.63;4.57;;;16.10;76.40;;;;;;5114976;28;20024;-76
2023/06/06 06:02:14;;;;;;;12.90;5.43;;;16.10;75.70;;;;;;5097111;28;20032;-76
2023/06/06 06:04:42;;;;;;;10.43;4.90;;;16.10;75.80;;;;;;5113870;28;20055;-75
2023/06/06 06:07:08;;;;;;;9.95;4.90;;;16.10;76.00;;;;;;5114772;28;20039;-76
2023/06/06 06:09:34;;;;;;;10.45;4.93;;;16.10;76.00;;;;;;5096710;28;20081;-75
2023/06/06 06:12:00;;;;;;;10.93;4.90;;;16.20;76.30;;;;;;5113730;28;20049;-75
2023/06/06 06:14:26;;;;;;;10.40;4.70;;;16.20;76.30;;;;;;5096753;28;20044;-76
2023/06/06 06:16:52;;;;;;;11.30;5.30;;;16.20;76.20;;;;;;5114559;28;20024;-76
2023/06/06 06:19:17;;;;;;;10.05;5.00;;;16.30;75.80;;;;;;5113648;28;20031;-76
2023/06/06 06:21:43;;;;;;;10.32;4.93;;;16.40;76.70;;;;;;5113616;28;20032;-76
2023/06/06 06:24:10;;;;;;;9.02;5.05;;;16.50;75.80;;;;;;5114189;28;20086;-75
2023/06/06 06:26:35;;;;;;;10.13;4.93;;;16.50;75.50;;;;;;5096577;28;20032;-76
2023/06/06 06:29:01;;;;;;;16.20;5.25;;;16.50;75.70;;;;;;5095657;28;20028;-76
2023/06/06 06:31:27;;;;;;;9.32;5.15;;;16.50;75.80;;;;;;5113370;28;20050;-76
2023/06/06 06:33:53;;;;;;;9.50;4.82;;;16.50;75.90;;;;;;5113314;28;20016;-76
2023/06/06 06:36:20;;;;;;;10.45;5.03;;;16.60;76.00;;;;;;5114285;28;20079;-76
2023/06/06 06:38:46;;;;;;;10.55;5.35;;;16.60;75.80;;;;;;5114199;28;20020;-76
2023/06/06 06:41:12;;;;;;;10.73;5.20;;;16.70;75.60;;;;;;5113257;28;20027;-76
2023/06/06 06:43:37;;;;;;;9.82;4.85;;;16.70;75.60;;;;;;5114193;28;20039;-76
2023/06/06 06:46:03;;;;;;;9.73;4.78;;;16.80;75.60;;;;;;5096287;28;20027;-76
2023/06/06 06:48:29;;;;;;;10.02;4.93;;;16.80;75.50;;;;;;5114072;28;20036;-76
2023/06/06 06:50:55;;;;;;;9.43;5.20;;;16.80;75.60;;;;;;5113070;28;20024;-76
2023/06/06 06:53:23;;;;;;;10.40;4.75;;;16.80;75.60;;;;;;5113969;28;20027;-76
2023/06/06 06:55:51;;;;;;;8.13;4.97;;;16.90;75.50;;;;;;5113975;28;20017;-76
2023/06/06 06:58:25;;;;;;;9.70;4.90;;;16.90;75.50;;;;;;5113939;28;20020;-76
2023/06/06 07:00:53;;;;;;;8.60;4.50;;;17.00;75.10;;;;;;5112921;28;20052;-76
2023/06/06 07:03:20;;;;;;;9.00;4.50;;;17.10;75.00;;;;;;5113838;28;20020;-76
2023/06/06 07:05:46;;;;;;;10.85;4.63;;;17.10;75.10;;;;;;5113849;28;20551;-76
2023/06/06 07:08:12;;;;;;;9.80;5.18;;;17.20;74.90;;;;;;5113750;28;20024;-76
2023/06/06 07:10:37;;;;;;;10.60;4.90;;;17.20;74.90;;;;;;5112711;28;20067;-76
2023/06/06 07:13:03;;;;;;;8.05;4.57;;;17.20;74.60;;;;;;5095821;28;20100;-76
2023/06/06 07:15:28;;;;;;;11.57;5.40;;;17.30;74.40;;;;;;5112793;28;20059;-77
2023/06/06 07:17:55;;;;;;;15.48;5.15;;;17.30;74.90;;;;;;5113694;28;20063;-76
2023/06/06 07:20:23;;;;;;;12.45;6.03;;;17.40;75.30;;;;;;5112724;28;20024;-76
2023/06/06 07:22:53;;;;;;;12.75;5.13;;;17.40;74.90;;;;;;5112650;28;20031;-76
2023/06/06 07:25:19;;;;;;;10.88;5.38;;;17.40;74.80;;;;;;5113441;28;20059;-76
2023/06/06 07:27:44;;;;;;;9.93;5.15;;;17.50;74.60;;;;;;5113548;28;20024;-76
2023/06/06 07:30:14;;;;;;;10.05;4.63;;;17.60;74.70;;;;;;5112485;28;20028;-75
2023/06/06 07:32:46;;;;;;;11.25;5.13;;;17.70;74.50;;;;;;5113771;28;20027;-76
2023/06/06 07:35:13;;;;;;;9.57;4.95;;;17.70;74.30;;;;;;5112498;28;20024;-76
2023/06/06 07:37:39;;;;;;;12.30;5.70;;;17.80;74.10;;;;;;5113452;28;20032;-76
2023/06/06 07:40:10;;;;;;;10.20;4.97;;;17.80;73.90;;;;;;5113803;28;20091;-76
2023/06/06 07:42:36;;;;;;;10.85;5.30;;;17.90;74.10;;;;;;5117868;28;20028;-76
2023/06/06 07:45:05;;;;;;;9.43;4.88;;;18.00;73.90;;;;;;5117693;28;20028;-76
2023/06/06 07:47:30;;;;;;;13.55;5.43;;;18.00;73.80;;;;;;5117533;28;20096;-76
2023/06/06 07:49:56;;;;;;;11.45;5.00;;;18.20;73.70;;;;;;5116398;28;20028;-76
2023/06/06 07:52:22;;;;;;;10.45;5.80;;;18.20;73.20;;;;;;5117429;28;20063;-76
2023/06/06 07:54:48;;;;;;;10.57;5.38;;;18.30;73.00;;;;;;5117557;28;20040;-75
2023/06/06 07:57:16;;;;;;;11.00;5.63;;;18.30;72.90;;;;;;5117344;28;20073;-76
2023/06/06 07:59:46;;;;;;;12.25;5.88;;;18.40;73.20;;;;;;5116384;28;20043;-76
2023/06/06 08:02:14;;;;;;;9.15;5.50;;;18.40;72.80;;;;;;5117256;28;20028;-76
2023/06/06 08:04:42;;;;;;;9.32;5.25;;;18.50;72.50;;;;;;5117206;28;20024;-76
2023/06/06 08:07:09;;;;;;;10.45;5.97;;;18.50;72.20;;;;;;5117148;28;20029;-76
2023/06/06 08:09:37;;;;;;;10.95;5.95;;;18.50;72.90;;;;;;5117064;28;20012;-76
2023/06/06 08:12:05;;;;;;;11.55;5.70;;;18.60;72.70;;;;;;5099291;28;20020;-76
2023/06/06 08:14:31;;;;;;;10.25;5.53;;;18.60;72.70;;;;;;5117021;28;20441;-76
2023/06/06 08:16:57;;;;;;;11.30;6.03;;;18.80;72.70;;;;;;5117003;28;20020;-76
2023/06/06 08:19:23;;;;;;;11.52;5.40;;;18.70;72.30;;;;;;5117034;28;20050;-76
2023/06/06 08:21:48;;;;;;;10.25;5.40;;;18.80;72.50;;;;;;5116874;28;20024;-76
2023/06/06 08:24:14;;;;;;;8.63;5.43;;;18.90;72.40;;;;;;5115685;28;20078;-76
2023/06/06 08:26:40;;;;;;;10.38;5.55;;;19.00;72.10;;;;;;5115876;28;20043;-76
2023/06/06 08:29:05;;;;;;;11.50;5.47;;;19.00;72.50;;;;;;5115907;28;20089;-76
2023/06/06 08:31:31;;;;;;;10.93;5.65;;;19.10;72.30;;;;;;5116643;28;20039;-76
2023/06/06 08:33:57;;;;;;;11.63;5.60;;;19.20;72.10;;;;;;5115676;28;20024;-76
2023/06/06 08:36:23;;;;;;;14.25;6.18;;;19.30;72.20;;;;;;5116635;28;20044;-76
2023/06/06 08:38:49;;;;;;;10.20;5.28;;;19.30;71.20;;;;;;5116706;28;20020;-76
2023/06/06 08:41:15;;;;;;;9.85;5.68;;;19.30;71.20;;;;;;5116596;28;20031;-76
2023/06/06 08:43:43;;;;;;;12.73;5.20;;;19.40;71.40;;;;;;5115462;28;20447;-76
2023/06/06 08:46:08;;;;;;;10.98;5.80;;;19.40;71.20;;;;;;5115378;28;20107;-76
2023/06/06 08:48:36;;;;;;;11.82;5.57;;;19.50;71.20;;;;;;5115475;28;20031;-76
2023/06/06 08:51:03;;;;;;;9.75;5.47;;;19.50;71.30;;;;;;5115732;28;20024;-76
2023/06/06 08:53:33;;;;;;;12.30;5.97;;;19.60;71.00;;;;;;5115886;28;20024;-76
2023/06/06 08:56:00;;;;;;;11.57;6.20;;;19.70;71.30;;;;;;5116277;28;20031;-76
2023/06/06 08:58:29;;;;;;;10.63;5.80;;;19.70;70.60;;;;;;5116216;28;20020;-76
2023/06/06 09:00:58;;;;;;;12.75;5.78;;;19.80;70.40;;;;;;5116173;28;20020;-76
2023/06/06 09:03:27;;;;;;;11.35;5.78;;;19.80;70.30;;;;;;5116102;28;20020;-76
2023/06/06 09:05:54;;;;;;;11.80;5.22;;;19.90;70.80;;;;;;5114999;28;20092;-76
2023/06/06 09:08:20;;;;;;;8.52;5.32;;;19.90;69.90;;;;;;5098032;28;20024;-76
2023/06/06 09:10:46;;;;;;;10.65;5.22;;;19.90;69.50;;;;;;5115910;28;20031;-76
2023/06/06 09:13:12;;;;;;;9.75;5.20;;;20.00;69.60;;;;;;5115005;28;20531;-76
2023/06/06 09:15:37;;;;;;;11.98;5.47;;;20.10;69.30;;;;;;5115133;28;20055;-76
2023/06/06 09:18:03;;;;;;;11.73;6.00;;;20.10;69.90;;;;;;5114879;28;20035;-76
2023/06/06 09:20:30;;;;;;;12.02;5.18;;;20.20;69.40;;;;;;5114813;28;20106;-77
2023/06/06 09:22:57;;;;;;;8.95;5.15;;;20.30;69.10;;;;;;5114925;28;20080;-76
2023/06/06 09:25:26;;;;;;;12.85;5.65;;;20.30;69.40;;;;;;5115541;28;20048;-76
2023/06/06 09:28:02;;;;;;;12.57;5.13;;;20.40;69.90;;;;;;5115644;28;20027;-76
2023/06/06 09:30:32;;;;;;;11.68;5.65;;;20.50;70.20;;;;;;5115500;28;20035;-76
2023/06/06 09:33:00;;;;;;;10.48;5.05;;;20.60;69.20;;;;;;5115588;28;20054;-77
2023/06/06 09:35:33;;;;;;;10.68;5.00;;;20.70;69.10;;;;;;5115405;28;20040;-76
2023/06/06 09:38:14;;;;;;;9.10;5.47;;;20.80;68.90;;;;;;5115540;28;20024;-77
2023/06/06 09:40:47;;;;;;;9.63;5.55;;;20.90;67.90;;;;;;5115645;28;20028;-76
2023/06/06 09:43:13;;;;;;;10.20;5.10;;;20.90;68.90;;;;;;5097531;28;20054;-77
2023/06/06 09:45:53;;;;;;;14.55;6.30;;;21.00;68.50;;;;;;5097348;28;20028;-76
2023/06/06 09:48:25;;;;;;;10.57;5.30;;;21.20;68.70;;;;;;5114385;28;20592;-77
2023/06/06 09:50:51;;;;;;;8.05;5.03;;;21.20;68.20;;;;;;5115161;28;20406;-77
2023/06/06 09:53:17;;;;;;;10.00;5.20;;;21.30;67.70;;;;;;5114206;28;20025;-76
2023/06/06 09:55:43;;;;;;;10.45;5.65;;;21.30;66.80;;;;;;5115112;28;20024;-77
2023/06/06 09:58:13;;;;;;;11.43;5.40;;;21.30;66.60;;;;;;5115165;28;20024;-76
2023/06/06 10:00:39;;;;;;;8.73;5.10;;;21.40;66.30;;;;;;5114245;28;20027;-77
2023/06/06 10:03:06;;;;;;;8.90;4.80;;;21.50;66.80;;;;;;5114940;28;20095;-76
2023/06/06 10:05:32;;;;;;;10.18;5.63;;;21.50;67.10;;;;;;5097403;28;20031;-77
2023/06/06 10:07:58;;;;;;;11.70;5.30;;;21.70;66.60;;;;;;5113882;28;20032;-77
2023/06/06 10:10:24;;;;;;;10.43;5.35;;;21.70;65.90;;;;;;5113701;28;20050;-77
2023/06/06 10:12:53;;;;;;;9.90;5.03;;;21.80;66.00;;;;;;5113771;28;20020;-77
2023/06/06 10:15:20;;;;;;;9.77;4.93;;;21.80;65.80;;;;;;5114743;28;20020;-77
2023/06/06 10:17:46;;;;;;;13.38;5.63;;;21.90;66.90;;;;;;5096892;28;20032;-77
2023/06/06 10:20:12;;;;;;;8.35;4.93;;;22.00;66.30;;;;;;5113738;28;20101;-77
2023/06/06 10:22:39;;;;;;;9.18;5.07;;;22.00;66.00;;;;;;5114568;28;20505;-77
2023/06/06 10:25:12;;;;;;;8.77;4.95;;;22.10;65.40;;;;;;5114357;28;20044;-77
2023/06/06 10:27:38;;;;;;;;;;;22.10;65.50;;;;;;5113904;28;20024;-77
2023/06/06 10:30:10;;;;;;;10.23;4.85;;;22.20;65.50;;;;;;5113344;28;19908;-78
2023/06/06 10:32:50;;;;;;;7.20;4.38;;;22.20;64.80;;;;;;5114369;28;20046;-77
2023/06/06 10:35:16;;;;;;;7.50;3.92;;;22.30;64.70;;;;;;5113512;28;20097;-77
2023/06/06 10:37:59;;;;;;;7.90;4.45;;;22.30;65.00;;;;;;5113349;28;20028;-77
2023/06/06 10:40:25;;;;;;;7.85;4.65;;;22.50;64.80;;;;;;5113552;28;20028;-77
2023/06/06 10:42:53;;;;;;;8.55;4.82;;;22.60;64.70;;;;;;5114298;28;20040;-77
2023/06/06 10:45:42;;;;;;;9.77;5.05;;;22.60;63.80;;;;;;5114271;28;20024;-77
2023/06/06 10:48:08;;;;;;;9.15;4.32;;;22.70;64.30;;;;;;5114266;28;20027;-77
2023/06/06 10:50:34;;;;;;;8.73;4.60;;;22.80;63.60;;;;;;5112975;28;20020;-76
2023/06/06 10:53:06;;;;;;;8.13;5.10;;;22.90;63.50;;;;;;5114214;28;20024;-77
2023/06/06 10:55:32;;;;;;;8.88;4.68;;;22.90;63.80;;;;;;5113360;28;20092;-77
2023/06/06 10:58:05;;;;;;;7.20;4.75;;;23.00;63.50;;;;;;5113950;28;20020;-77
2023/06/06 11:00:34;;;;;;;;;;;23.10;62.50;;;;;;5113419;28;20032;-77
2023/06/06 11:03:07;;;;;;;9.57;4.47;;;23.10;61.70;;;;;;5112855;28;19954;-77
2023/06/06 11:05:33;;;;;;;6.82;4.30;;;23.20;62.90;;;;;;5112904;28;20032;-77
2023/06/06 11:08:01;;;;;;;9.13;4.28;;;23.20;62.30;;;;;;5095967;28;20048;-77
2023/06/06 11:10:27;;;;;;;7.18;4.53;;;23.30;62.20;;;;;;5112748;28;20479;-77
2023/06/06 11:12:54;;;;;;;7.72;4.60;;;23.30;61.70;;;;;;5113741;28;20020;-77
2023/06/06 11:15:55;;;;;;;7.03;4.50;;;23.40;62.10;;;;;;5112287;28;20020;-77
2023/06/06 11:18:36;;;;;;;10.50;4.90;;;23.50;61.50;;;;;;5113698;28;20021;-77
2023/06/06 11:21:02;;;;;;;7.53;3.67;;;23.50;60.30;;;;;;5113678;28;20077;-77
2023/06/06 11:23:41;;;;;;;7.40;3.85;;;23.50;61.10;;;;;;5095624;28;20043;-77
2023/06/06 11:26:10;;;;;;;6.78;4.13;;;23.60;61.00;;;;;;5092361;28;20111;-77
2023/06/06 11:28:37;;;;;;;8.23;3.95;;;23.70;59.90;;;;;;5092361;28;20032;-77
2023/06/06 11:31:05;;;;;;;10.32;4.30;;;23.70;60.40;;;;;;5093194;28;20112;-77
2023/06/06 11:33:32;;;;;;;8.05;4.38;;;23.80;60.60;;;;;;5093151;28;20051;-77
2023/06/06 11:35:59;;;;;;;9.52;4.50;;;24.00;60.50;;;;;;5093258;28;20021;-77
2023/06/06 11:38:27;;;;;;;8.73;4.30;;;24.10;59.70;;;;;;5093178;28;20043;-77
2023/06/06 11:40:52;;;;;;;7.53;4.05;;;24.10;59.00;;;;;;5093193;28;20020;-77
2023/06/06 11:43:18;;;;;;;11.13;4.47;;;24.10;58.80;;;;;;5093170;28;20044;-77
2023/06/06 11:45:44;;;;;;;7.35;3.80;;;24.10;58.20;;;;;;5075510;28;20055;-77
2023/06/06 11:48:23;;;;;;;8.77;4.72;;;24.10;58.60;;;;;;5093150;28;20074;-77
2023/06/06 11:50:49;;;;;;;7.68;4.30;;;24.20;58.60;;;;;;5093185;28;20029;-77
2023/06/06 11:53:30;;;;;;;12.93;4.20;;;24.30;58.30;;;;;;5093305;28;20028;-77
2023/06/06 11:55:56;;;;;;;6.00;3.47;;;24.30;57.40;;;;;;5093147;28;20017;-77
2023/06/06 11:58:23;;;;;;;5.07;3.40;;;24.30;57.50;;;;;;5093031;28;20024;-77
2023/06/06 12:00:50;;;;;;;6.10;3.60;;;24.50;58.20;;;;;;5093026;28;20025;-77
2023/06/06 12:03:15;;;;;;;7.60;4.28;;;24.50;58.30;;;;;;5075255;28;20074;-77
2023/06/06 12:05:41;;;;;;;7.72;4.20;;;24.70;57.20;;;;;;5075308;28;20025;-78
2023/06/06 12:08:07;;;;;;;8.23;4.30;;;24.70;57.40;;;;;;5091975;28;20480;-78
2023/06/06 12:10:33;;;;;;;7.65;4.07;;;24.70;56.70;;;;;;5092854;28;20035;-78
2023/06/06 12:12:59;;;;;;;7.82;3.95;;;24.80;57.30;;;;;;5092059;28;20048;-79
2023/06/06 12:15:43;;;;;;;22.30;6.18;;;24.90;56.50;;;;;;5091911;28;20025;-78
2023/06/06 12:18:08;;;;;;;7.47;4.40;;;25.00;56.90;;;;;;5092114;28;20032;-78
2023/06/06 12:20:34;;;;;;;6.78;4.15;;;25.20;56.50;;;;;;5075075;28;20017;-78
2023/06/06 12:23:00;;;;;;;7.90;4.40;;;25.20;56.10;;;;;;5092801;28;20059;-78
2023/06/06 12:25:29;;;;;;;8.73;4.10;;;25.30;55.10;;;;;;5091304;28;20051;-78
2023/06/06 12:28:07;;;;;;;7.93;4.00;;;25.30;54.70;;;;;;5097782;28;20044;-78
2023/06/06 12:30:33;;;;;;;8.27;3.58;;;25.40;55.20;;;;;;5116727;28;20024;-78
2023/06/06 12:33:02;;;;;;;8.18;3.72;;;25.40;55.60;;;;;;5115821;28;20054;-77
2023/06/06 12:35:28;;;;;;;9.80;3.97;;;25.30;55.00;;;;;;5115633;28;20091;-77
2023/06/06 12:37:55;;;;;;;5.93;3.67;;;25.40;55.60;;;;;;5116652;28;20020;-78
2023/06/06 12:40:33;;;;;;;26.50;7.55;;;25.50;54.70;;;;;;5116571;28;20027;-78
2023/06/06 12:43:03;;;;;;;50.38;11.77;;;25.50;52.90;;;;;;5116607;28;20053;-77
2023/06/06 12:45:29;;;;;;;10.18;4.63;;;25.60;54.60;;;;;;5116531;28;20028;-77